createdAt,value
2023-08-17T00:01:34.709Z,20.40
2023-08-17T00:04:01.772Z,20.60
2023-08-17T00:06:28.519Z,20.60
2023-08-17T00:08:55.270Z,20.60
2023-08-17T00:11:22.666Z,20.70
2023-08-17T00:13:49.518Z,20.80
2023-08-17T00:16:16.398Z,20.60
2023-08-17T00:18:43.303Z,20.70
2023-08-17T00:21:10.148Z,20.50
2023-08-17T00:23:36.981Z,20.40
2023-08-17T00:26:03.801Z,20.40
2023-08-17T00:28:30.503Z,20.40
2023-08-17T00:30:57.303Z,20.40
2023-08-17T00:33:24.152Z,20.40
2023-08-17T00:35:51.971Z,20.50
2023-08-17T00:38:18.730Z,20.40
2023-08-17T00:40:45.528Z,20.30
2023-08-17T00:43:12.370Z,20.30
2023-08-17T00:45:39.285Z,20.30
2023-08-17T00:48:09.327Z,20.30
2023-08-17T00:50:37.441Z,20.40
2023-08-17T00:53:04.650Z,20.50
2023-08-17T00:55:31.624Z,20.60
2023-08-17T00:57:59.197Z,20.60
2023-08-17T01:00:28.017Z,20.70
2023-08-17T01:02:56.184Z,20.50
2023-08-17T01:05:24.950Z,20.40
2023-08-17T01:07:51.850Z,20.40
2023-08-17T01:10:18.893Z,20.50
2023-08-17T01:12:54.783Z,20.50
2023-08-17T01:15:44.064Z,20.40
2023-08-17T01:18:34.427Z,20.10
2023-08-17T01:21:03.098Z,20.20
2023-08-17T01:23:30.063Z,20.10
2023-08-17T01:25:58.485Z,20.30
2023-08-17T01:28:25.548Z,20.30
2023-08-17T01:31:15.444Z,20.30
2023-08-17T01:33:56.973Z,20.40
2023-08-17T01:36:32.294Z,20.20
2023-08-17T01:39:01.880Z,20.30
2023-08-17T01:41:29.475Z,20.20
2023-08-17T01:43:57.147Z,20.10
2023-08-17T01:46:24.008Z,20.30
2023-08-17T01:48:50.810Z,20.20
2023-08-17T01:51:23.693Z,20.20
2023-08-17T01:53:50.524Z,20.10
2023-08-17T01:56:17.340Z,20.00
2023-08-17T01:58:44.677Z,20.10
2023-08-17T02:01:17.732Z,20.10
2023-08-17T02:03:44.629Z,20.00
2023-08-17T02:06:11.375Z,20.00
2023-08-17T02:08:59.095Z,20.10
2023-08-17T02:11:25.991Z,20.10
2023-08-17T02:13:52.684Z,20.00
2023-08-17T02:16:19.524Z,19.90
2023-08-17T02:18:46.214Z,19.80
2023-08-17T02:21:13.086Z,19.60
2023-08-17T02:23:39.889Z,19.60
2023-08-17T02:26:06.674Z,19.60
2023-08-17T02:28:33.521Z,19.50
2023-08-17T02:31:00.591Z,19.60
2023-08-17T02:33:27.697Z,19.60
2023-08-17T02:35:54.664Z,19.70
2023-08-17T02:38:23.935Z,19.70
2023-08-17T02:40:51.418Z,19.80
2023-08-17T02:43:18.371Z,19.70
2023-08-17T02:45:54.448Z,19.60
2023-08-17T02:48:21.291Z,19.50
2023-08-17T02:50:48.129Z,19.50
2023-08-17T02:53:14.901Z,19.70
2023-08-17T02:55:41.744Z,19.80
2023-08-17T02:58:08.497Z,19.70
2023-08-17T03:00:35.296Z,19.60
2023-08-17T03:03:02.212Z,19.50
2023-08-17T03:05:29.014Z,19.30
2023-08-17T03:07:55.771Z,19.40
2023-08-17T03:10:22.654Z,19.30
2023-08-17T03:12:49.369Z,19.30
2023-08-17T03:15:17.013Z,19.30
2023-08-17T03:17:44.461Z,19.40
2023-08-17T03:20:12.182Z,19.50
2023-08-17T03:22:39.104Z,19.60
2023-08-17T03:25:06.580Z,19.50
2023-08-17T03:27:33.444Z,19.60
2023-08-17T03:30:00.236Z,19.70
2023-08-17T03:32:27.020Z,19.70
2023-08-17T03:34:53.812Z,19.80
2023-08-17T03:37:20.578Z,19.80
2023-08-17T03:39:47.767Z,19.40
2023-08-17T03:42:14.587Z,19.50
2023-08-17T03:44:41.342Z,19.60
2023-08-17T03:47:08.066Z,19.70
2023-08-17T03:49:34.826Z,19.30
2023-08-17T03:52:01.781Z,19.00
2023-08-17T03:54:28.529Z,18.90
2023-08-17T03:56:55.314Z,18.90
2023-08-17T03:59:22.149Z,18.90
2023-08-17T04:01:48.998Z,19.10
2023-08-17T04:04:15.818Z,19.30
2023-08-17T04:06:42.620Z,19.40
2023-08-17T04:09:09.427Z,19.40
2023-08-17T04:11:37.786Z,19.40
2023-08-17T04:14:05.003Z,19.40
2023-08-17T04:16:32.999Z,19.50
2023-08-17T04:18:59.795Z,19.50
2023-08-17T04:21:26.637Z,19.50
2023-08-17T04:23:53.654Z,19.50
2023-08-17T04:26:20.635Z,19.40
2023-08-17T04:28:47.917Z,19.40
2023-08-17T04:31:14.769Z,19.50
2023-08-17T04:33:41.869Z,19.40
2023-08-17T04:36:08.579Z,19.40
2023-08-17T04:38:35.288Z,18.90
2023-08-17T04:41:02.232Z,18.70
2023-08-17T04:43:28.946Z,18.50
2023-08-17T04:45:55.796Z,18.70
2023-08-17T04:48:22.623Z,18.80
2023-08-17T04:50:49.885Z,18.80
2023-08-17T04:53:16.657Z,18.80
2023-08-17T04:55:43.539Z,18.80
2023-08-17T04:58:10.264Z,18.80
2023-08-17T05:00:37.002Z,18.80
2023-08-17T05:03:04.602Z,18.80
2023-08-17T05:05:31.489Z,18.70
2023-08-17T05:07:58.245Z,18.60
2023-08-17T05:10:24.946Z,18.50
2023-08-17T05:12:51.661Z,18.40
2023-08-17T05:15:18.450Z,18.30
2023-08-17T05:17:45.314Z,18.30
2023-08-17T05:20:13.965Z,18.30
2023-08-17T05:22:40.773Z,18.50
2023-08-17T05:25:08.153Z,18.60
2023-08-17T05:27:35.018Z,18.60
2023-08-17T05:30:01.868Z,18.50
2023-08-17T05:32:28.696Z,18.50
2023-08-17T05:34:55.513Z,18.40
2023-08-17T05:37:22.314Z,18.40
2023-08-17T05:39:49.223Z,18.40
2023-08-17T05:42:16.088Z,18.50
2023-08-17T05:44:43.006Z,18.70
2023-08-17T05:47:09.748Z,18.50
2023-08-17T05:49:36.539Z,18.50
2023-08-17T05:52:03.302Z,18.70
2023-08-17T05:54:30.093Z,18.60
2023-08-17T05:56:56.953Z,18.60
2023-08-17T05:59:23.772Z,18.60
2023-08-17T06:01:50.507Z,18.50
2023-08-17T06:04:17.469Z,18.80
2023-08-17T06:06:44.271Z,18.80
2023-08-17T06:09:11.036Z,18.90
2023-08-17T06:11:37.816Z,19.10
2023-08-17T06:14:04.811Z,19.30
2023-08-17T06:16:31.760Z,19.10
2023-08-17T06:18:58.648Z,19.00
2023-08-17T06:21:31.242Z,19.00
2023-08-17T06:23:57.946Z,19.00
2023-08-17T06:26:30.963Z,19.30
2023-08-17T06:28:58.152Z,19.40
2023-08-17T06:31:28.690Z,19.70
2023-08-17T06:33:55.943Z,19.80
2023-08-17T06:36:22.832Z,19.90
2023-08-17T06:38:49.604Z,19.90
2023-08-17T06:41:17.440Z,19.90
2023-08-17T06:43:44.210Z,20.00
2023-08-17T06:46:11.017Z,19.70
2023-08-17T06:48:37.874Z,19.70
2023-08-17T06:51:05.885Z,20.00
2023-08-17T06:53:32.727Z,20.10
2023-08-17T06:56:02.532Z,19.90
2023-08-17T06:58:29.708Z,19.90
2023-08-17T07:00:56.915Z,20.20
2023-08-17T07:03:23.857Z,20.30
2023-08-17T07:05:50.750Z,20.30
2023-08-17T07:08:18.091Z,20.50
2023-08-17T07:10:45.005Z,20.40
2023-08-17T07:13:11.752Z,20.40
2023-08-17T07:15:40.658Z,20.40
2023-08-17T07:18:07.579Z,20.00
2023-08-17T07:20:34.518Z,20.30
2023-08-17T07:23:01.367Z,20.30
2023-08-17T07:25:28.185Z,20.40
2023-08-17T07:27:55.107Z,20.40
2023-08-17T07:30:22.102Z,20.10
2023-08-17T07:32:49.040Z,19.90
2023-08-17T07:35:15.949Z,20.00
2023-08-17T07:37:43.355Z,20.30
2023-08-17T07:40:12.959Z,20.60
2023-08-17T07:42:39.892Z,20.60
2023-08-17T07:45:08.415Z,20.40
2023-08-17T07:47:37.454Z,20.60
2023-08-17T07:50:05.927Z,20.60
2023-08-17T07:52:32.851Z,20.40
2023-08-17T07:55:00.026Z,20.30
2023-08-17T07:57:27.243Z,20.70
2023-08-17T07:59:54.955Z,20.90
2023-08-17T08:02:21.800Z,21.20
2023-08-17T08:04:48.740Z,21.00
2023-08-17T08:07:15.593Z,20.70
2023-08-17T08:09:42.394Z,20.40
2023-08-17T08:12:09.239Z,20.80
2023-08-17T08:14:36.830Z,21.10
2023-08-17T08:17:03.617Z,21.20
2023-08-17T08:19:30.375Z,21.30
2023-08-17T08:21:57.192Z,21.40
2023-08-17T08:24:36.760Z,21.60
2023-08-17T08:27:05.162Z,21.80
2023-08-17T08:29:31.977Z,21.70
2023-08-17T08:32:00.952Z,21.80
2023-08-17T08:34:27.933Z,21.80
2023-08-17T08:36:54.762Z,21.90
2023-08-17T08:39:21.542Z,21.90
2023-08-17T08:41:48.553Z,22.00
2023-08-17T08:44:15.525Z,22.10
2023-08-17T08:46:43.647Z,22.30
2023-08-17T08:49:12.466Z,22.30
2023-08-17T08:51:45.636Z,22.30
2023-08-17T08:54:15.383Z,22.40
2023-08-17T08:56:47.797Z,22.50
2023-08-17T08:59:15.633Z,22.50
2023-08-17T09:01:42.957Z,22.50
2023-08-17T09:04:09.913Z,22.50
2023-08-17T09:06:38.034Z,22.70
2023-08-17T09:09:07.065Z,22.80
2023-08-17T09:11:34.099Z,22.80
2023-08-17T09:14:01.056Z,22.80
2023-08-17T09:16:29.224Z,22.80
2023-08-17T09:18:56.068Z,22.80
2023-08-17T09:21:25.475Z,22.80
2023-08-17T09:23:58.884Z,22.80
2023-08-17T09:26:26.286Z,22.90
2023-08-17T09:28:57.862Z,23.00
2023-08-17T09:31:25.856Z,23.00
2023-08-17T09:33:53.286Z,23.10
2023-08-17T09:36:24.116Z,23.10
2023-08-17T09:38:52.051Z,23.30
2023-08-17T09:41:20.270Z,23.30
2023-08-17T09:43:50.184Z,23.50
2023-08-17T09:46:16.994Z,23.70
2023-08-17T09:48:48.385Z,23.70
2023-08-17T09:51:18.921Z,23.80
2023-08-17T09:53:45.811Z,24.00
2023-08-17T09:58:43.230Z,24.10
2023-08-17T10:01:11.362Z,24.40
2023-08-17T10:03:43.297Z,24.40
2023-08-17T10:06:13.081Z,24.50
2023-08-17T10:08:46.359Z,24.40
2023-08-17T10:11:16.021Z,24.50
2023-08-17T10:13:48.979Z,24.70
2023-08-17T10:16:31.191Z,24.80
2023-08-17T10:19:18.172Z,25.00
2023-08-17T10:21:55.156Z,25.30
2023-08-17T10:24:22.000Z,25.50
2023-08-17T10:26:54.966Z,25.70
2023-08-17T10:29:24.425Z,25.70
2023-08-17T10:31:52.130Z,25.90
2023-08-17T10:34:19.565Z,26.10
2023-08-17T10:36:46.796Z,26.10
2023-08-17T10:39:28.699Z,26.20
2023-08-17T10:41:57.698Z,26.30
2023-08-17T10:44:43.277Z,26.20
2023-08-17T10:47:23.338Z,26.40
2023-08-17T10:50:05.115Z,26.60
2023-08-17T10:52:34.764Z,26.70
2023-08-17T10:55:06.543Z,26.70
2023-08-17T10:57:43.814Z,26.70
2023-08-17T11:00:33.103Z,26.80
2023-08-17T11:03:01.009Z,26.90
2023-08-17T11:05:44.548Z,26.80
2023-08-17T11:08:20.874Z,27.00
2023-08-17T11:11:08.286Z,27.20
2023-08-17T11:13:40.220Z,27.40
2023-08-17T11:16:08.199Z,26.60
2023-08-17T11:18:35.705Z,27.00
2023-08-17T11:21:07.171Z,26.90
2023-08-17T11:23:37.256Z,27.20
2023-08-17T11:26:05.142Z,26.80
2023-08-17T11:28:42.536Z,26.90
2023-08-17T11:31:11.711Z,26.80
2023-08-17T11:33:39.711Z,26.90
2023-08-17T11:36:08.154Z,27.20
2023-08-17T11:38:39.792Z,27.40
2023-08-17T11:41:09.424Z,27.00
2023-08-17T11:43:36.552Z,26.50
2023-08-17T11:46:04.175Z,26.90
2023-08-17T11:48:36.710Z,26.90
2023-08-17T11:51:05.089Z,26.80
2023-08-17T11:53:36.530Z,26.70
2023-08-17T11:56:08.391Z,27.20
2023-08-17T11:58:44.796Z,27.40
2023-08-17T12:01:13.485Z,27.30
2023-08-17T12:03:42.430Z,26.50
2023-08-17T12:06:10.743Z,27.00
2023-08-17T12:08:37.555Z,26.90
2023-08-17T12:11:05.097Z,26.80
2023-08-17T12:13:35.834Z,27.10
2023-08-17T12:16:04.333Z,27.20
2023-08-17T12:18:34.510Z,27.50
2023-08-17T12:21:01.727Z,27.40
2023-08-17T12:23:28.562Z,27.10
2023-08-17T12:25:56.714Z,26.70
2023-08-17T12:28:25.323Z,27.40
2023-08-17T12:31:00.827Z,27.70
2023-08-17T12:33:27.827Z,26.80
2023-08-17T12:35:54.788Z,26.90
2023-08-17T12:38:22.860Z,27.30
2023-08-17T12:40:49.610Z,27.00
2023-08-17T12:43:16.392Z,27.30
2023-08-17T12:45:43.162Z,27.20
2023-08-17T12:48:09.981Z,27.10
2023-08-17T12:50:43.462Z,27.30
2023-08-17T12:53:10.955Z,27.20
2023-08-17T12:55:37.921Z,26.70
2023-08-17T12:58:06.082Z,27.00
2023-08-17T13:00:33.083Z,27.10
2023-08-17T13:03:00.048Z,27.20
2023-08-17T13:05:27.096Z,27.20
2023-08-17T13:07:53.882Z,27.00
2023-08-17T13:10:20.748Z,27.10
2023-08-17T13:12:48.455Z,27.10
2023-08-17T13:15:15.378Z,27.50
2023-08-17T13:17:43.095Z,27.60
2023-08-17T13:20:10.857Z,27.20
2023-08-17T13:22:37.996Z,27.00
2023-08-17T13:25:05.242Z,27.20
2023-08-17T13:27:32.135Z,27.20
2023-08-17T13:30:02.486Z,27.30
2023-08-17T13:32:29.775Z,27.20
2023-08-17T13:34:56.886Z,26.90
2023-08-17T13:37:23.695Z,26.80
2023-08-17T13:39:50.566Z,27.20
2023-08-17T13:42:17.487Z,27.20
2023-08-17T13:44:44.276Z,26.90
2023-08-17T13:47:11.057Z,27.00
2023-08-17T13:49:37.793Z,26.90
2023-08-17T13:52:05.224Z,26.90
2023-08-17T13:54:31.966Z,26.80
2023-08-17T13:56:58.785Z,26.70
2023-08-17T13:59:25.491Z,26.60
2023-08-17T14:01:52.314Z,26.60
2023-08-17T14:04:19.746Z,26.70
2023-08-17T14:06:46.741Z,26.80
2023-08-17T14:09:13.487Z,26.90
2023-08-17T14:11:40.321Z,26.90
2023-08-17T14:14:08.568Z,27.30
2023-08-17T14:16:37.437Z,27.60
2023-08-17T14:19:04.573Z,27.40
2023-08-17T14:21:31.348Z,27.60
2023-08-17T14:23:58.256Z,27.80
2023-08-17T14:26:25.109Z,27.90
2023-08-17T14:28:51.877Z,28.70
2023-08-17T14:31:19.543Z,29.10
2023-08-17T14:33:50.502Z,28.30
2023-08-17T14:36:20.816Z,27.90
2023-08-17T14:38:48.099Z,27.70
2023-08-17T14:41:14.917Z,28.00
2023-08-17T14:43:41.789Z,27.90
2023-08-17T14:46:14.688Z,27.50
2023-08-17T14:48:42.447Z,27.70
2023-08-17T14:51:09.317Z,27.60
2023-08-17T14:53:39.359Z,27.80
2023-08-17T14:56:06.652Z,28.00
2023-08-17T14:58:33.641Z,28.00
2023-08-17T15:01:00.396Z,28.00
2023-08-17T15:03:33.378Z,27.60
2023-08-17T15:06:00.681Z,27.50
2023-08-17T15:08:33.681Z,27.50
2023-08-17T15:11:03.165Z,27.60
2023-08-17T15:13:30.131Z,27.60
2023-08-17T15:15:57.449Z,27.60
2023-08-17T15:18:24.719Z,27.60
2023-08-17T15:20:51.544Z,27.50
2023-08-17T15:23:19.133Z,28.20
2023-08-17T15:25:46.152Z,28.70
2023-08-17T15:28:12.866Z,28.50
2023-08-17T15:30:39.614Z,27.90
2023-08-17T15:33:06.373Z,27.60
2023-08-17T15:35:33.137Z,27.50
2023-08-17T15:38:00.069Z,27.60
2023-08-17T15:40:26.884Z,28.60
2023-08-17T15:42:53.669Z,28.50
2023-08-17T15:45:21.723Z,27.80
2023-08-17T15:47:49.058Z,27.70
2023-08-17T15:50:15.962Z,27.50
2023-08-17T15:52:43.450Z,27.60
2023-08-17T15:55:10.195Z,27.70
2023-08-17T15:57:37.721Z,27.60
2023-08-17T16:00:05.124Z,27.60
2023-08-17T16:02:31.870Z,27.60
2023-08-17T16:04:58.786Z,27.80
2023-08-17T16:07:25.781Z,27.80
2023-08-17T16:09:52.817Z,27.70
2023-08-17T16:12:19.541Z,27.70
2023-08-17T16:14:49.419Z,27.50
2023-08-17T16:17:17.044Z,27.50
2023-08-17T16:19:44.098Z,27.50
2023-08-17T16:22:10.880Z,27.40
2023-08-17T16:24:37.614Z,27.50
2023-08-17T16:27:04.530Z,27.40
2023-08-17T16:29:31.258Z,27.40
2023-08-17T16:34:34.501Z,27.20
2023-08-17T16:37:01.341Z,27.20
2023-08-17T16:39:29.110Z,27.10
2023-08-17T16:41:57.207Z,27.10
2023-08-17T16:44:26.061Z,27.00
2023-08-17T16:46:54.431Z,27.00
2023-08-17T16:49:21.130Z,26.90
2023-08-17T16:51:47.877Z,27.00
2023-08-17T16:54:14.701Z,27.00
2023-08-17T16:56:44.402Z,27.00
2023-08-17T16:59:12.171Z,27.00
2023-08-17T17:01:39.530Z,27.00
2023-08-17T17:04:07.199Z,27.00
2023-08-17T17:06:34.246Z,27.00
2023-08-17T17:09:01.004Z,26.90
2023-08-17T17:11:28.095Z,26.90
2023-08-17T17:13:56.845Z,26.90
2023-08-17T17:16:25.507Z,26.90
2023-08-17T17:18:52.429Z,26.90
2023-08-17T17:21:19.355Z,26.90
2023-08-17T17:23:46.208Z,27.10
2023-08-17T17:26:13.045Z,26.90
2023-08-17T17:28:39.833Z,26.90
2023-08-17T17:31:07.187Z,26.90
2023-08-17T17:33:34.087Z,26.80
2023-08-17T17:36:00.773Z,26.90
2023-08-17T17:38:27.546Z,26.80
2023-08-17T17:40:54.394Z,26.70
2023-08-17T17:43:21.200Z,26.70
2023-08-17T17:45:48.901Z,26.70
2023-08-17T17:48:15.894Z,26.60
2023-08-17T17:50:42.851Z,26.60
2023-08-17T17:53:10.850Z,26.50
2023-08-17T17:55:37.824Z,26.50
2023-08-17T17:58:07.010Z,26.40
2023-08-17T18:00:34.520Z,26.40
2023-08-17T18:03:14.517Z,26.40
2023-08-17T18:05:44.661Z,26.30
2023-08-17T18:08:12.029Z,26.20
2023-08-17T18:10:40.080Z,26.10
2023-08-17T18:13:08.055Z,26.00
2023-08-17T18:15:36.014Z,26.00
2023-08-17T18:18:06.781Z,26.00
2023-08-17T18:20:33.744Z,26.00
2023-08-17T18:23:00.780Z,25.90
2023-08-17T18:25:28.085Z,25.90
2023-08-17T18:27:54.986Z,25.80
2023-08-17T18:30:23.211Z,25.80
2023-08-17T18:32:50.073Z,25.70
2023-08-17T18:35:16.826Z,25.70
2023-08-17T18:37:43.714Z,25.50
2023-08-17T18:40:12.030Z,25.50
2023-08-17T18:42:40.469Z,25.50
2023-08-17T18:45:07.965Z,25.40
2023-08-17T18:47:34.895Z,25.30
2023-08-17T18:50:02.040Z,25.30
2023-08-17T18:52:28.774Z,25.30
2023-08-17T18:55:03.324Z,25.20
2023-08-17T18:57:32.837Z,25.20
2023-08-17T19:00:01.499Z,25.20
2023-08-17T19:02:28.235Z,25.10
2023-08-17T19:04:55.035Z,24.90
2023-08-17T19:07:23.522Z,24.80
2023-08-17T19:09:50.280Z,24.80
2023-08-17T19:12:18.506Z,24.90
2023-08-17T19:14:46.605Z,24.90
2023-08-17T19:17:13.630Z,24.80
2023-08-17T19:19:41.529Z,24.70
2023-08-17T19:22:08.777Z,24.50
2023-08-17T19:24:35.727Z,24.60
2023-08-17T19:27:05.437Z,24.50
2023-08-17T19:29:32.196Z,24.30
2023-08-17T19:31:59.048Z,24.30
2023-08-17T19:34:25.969Z,24.30
2023-08-17T19:36:52.718Z,24.30
2023-08-17T19:39:20.061Z,24.30
2023-08-17T19:41:48.408Z,24.20
2023-08-17T19:44:15.673Z,24.20
2023-08-17T19:46:42.840Z,24.10
2023-08-17T19:49:10.084Z,24.10
2023-08-17T19:51:37.651Z,24.10
2023-08-17T19:54:05.089Z,24.20
2023-08-17T19:56:31.830Z,24.20
2023-08-17T19:58:58.696Z,24.30
2023-08-17T20:01:26.480Z,24.40
2023-08-17T20:03:54.685Z,24.10
2023-08-17T20:06:21.567Z,24.00
2023-08-17T20:08:48.323Z,24.00
2023-08-17T20:11:15.169Z,24.00
2023-08-17T20:13:42.206Z,23.90
2023-08-17T20:16:09.362Z,23.80
2023-08-17T20:18:36.215Z,23.70
2023-08-17T20:21:04.595Z,23.70
2023-08-17T20:23:32.652Z,23.70
2023-08-17T20:26:00.075Z,23.60
2023-08-17T20:28:26.924Z,23.60
2023-08-17T20:30:59.294Z,23.60
2023-08-17T20:33:26.884Z,23.50
2023-08-17T20:35:55.167Z,23.50
2023-08-17T20:38:22.720Z,23.50
2023-08-17T20:40:50.248Z,23.40
2023-08-17T20:43:17.419Z,23.30
2023-08-17T20:45:47.611Z,23.20
2023-08-17T20:48:14.589Z,23.20
2023-08-17T20:50:43.123Z,23.10
2023-08-17T20:53:09.933Z,23.10
2023-08-17T20:55:40.560Z,23.20
2023-08-17T20:58:08.026Z,23.20
2023-08-17T21:00:38.150Z,23.30
2023-08-17T21:03:05.918Z,23.10
2023-08-17T21:05:33.162Z,23.00
2023-08-17T21:08:01.108Z,23.00
2023-08-17T21:10:28.498Z,23.00
2023-08-17T21:12:55.346Z,23.00
2023-08-17T21:15:22.381Z,22.90
2023-08-17T21:17:49.193Z,22.90
2023-08-17T21:20:16.158Z,22.90
2023-08-17T21:22:46.908Z,22.80
2023-08-17T21:25:13.623Z,22.90
2023-08-17T21:27:40.403Z,22.90
2023-08-17T21:30:08.004Z,22.90
2023-08-17T21:32:34.809Z,22.80
2023-08-17T21:35:01.609Z,22.80
2023-08-17T21:37:29.727Z,22.60
2023-08-17T21:39:56.690Z,22.70
2023-08-17T21:42:23.607Z,22.70
2023-08-17T21:44:51.264Z,22.80
2023-08-17T21:47:18.082Z,22.90
2023-08-17T21:49:47.722Z,22.80
2023-08-17T21:52:15.746Z,22.80
2023-08-17T21:54:42.795Z,22.90
2023-08-17T21:57:09.524Z,22.70
2023-08-17T21:59:36.188Z,22.60
2023-08-17T22:02:03.968Z,22.60
2023-08-17T22:04:33.665Z,22.50
2023-08-17T22:07:03.348Z,22.40
2023-08-17T22:09:30.861Z,22.40
2023-08-17T22:11:57.720Z,22.30
2023-08-17T22:14:24.491Z,22.20
2023-08-17T22:16:51.347Z,22.40
2023-08-17T22:19:18.078Z,22.30
2023-08-17T22:21:44.897Z,22.30
2023-08-17T22:24:11.816Z,22.30
2023-08-17T22:26:38.602Z,22.40
2023-08-17T22:29:07.015Z,22.50
2023-08-17T22:31:35.305Z,22.50
2023-08-17T22:34:02.298Z,22.40
2023-08-17T22:36:29.006Z,22.30
2023-08-17T22:38:55.831Z,22.20
2023-08-17T22:41:22.686Z,22.30
2023-08-17T22:43:49.966Z,22.40
2023-08-17T22:46:16.852Z,22.40
2023-08-17T22:48:44.421Z,22.30
2023-08-17T22:51:14.623Z,22.10
2023-08-17T22:53:42.097Z,22.10
2023-08-17T22:56:09.095Z,22.10
2023-08-17T22:58:35.834Z,21.90
2023-08-17T23:01:02.617Z,21.90
2023-08-17T23:03:29.470Z,22.10
2023-08-17T23:05:56.203Z,22.00
2023-08-17T23:08:22.978Z,21.80
2023-08-17T23:10:49.708Z,21.90
2023-08-17T23:13:16.548Z,21.80
2023-08-17T23:15:43.312Z,21.90
2023-08-17T23:18:10.314Z,21.90
2023-08-17T23:20:37.118Z,21.90
2023-08-17T23:23:04.271Z,22.00
2023-08-17T23:25:32.378Z,22.00
2023-08-17T23:27:59.274Z,22.10
2023-08-17T23:30:25.997Z,22.10
2023-08-17T23:32:55.273Z,22.00
2023-08-17T23:35:21.999Z,22.00
2023-08-17T23:37:48.741Z,21.80
2023-08-17T23:40:15.837Z,21.60
2023-08-17T23:42:43.440Z,21.50
2023-08-17T23:45:10.250Z,21.40
2023-08-17T23:47:37.355Z,21.60
2023-08-17T23:50:06.117Z,21.70
2023-08-17T23:52:33.720Z,21.60
2023-08-17T23:55:00.560Z,21.50
2023-08-17T23:57:27.998Z,21.30
2023-08-17T23:59:54.945Z,21.40
